Pindi Bhattian Weather



Pindi Bhattian's Current Weather

Temprature 37.89o broken clouds

broken clouds

Rain: 0 %

Min Temprature37.89o
Max Temprature37.89o
Humidity17
Wind Speed2.26 m/h
Sun Rise05:15:06
Sun Set18:51:42
Current Time: 08-May-2021 16:06:06
Lat/Lon: 31.8978, 73.273




Pindi Bhattian's Geo Location



Pindi Bhattian's Weather Forecast

Time Overall Temp Min Temp Max Temp Humidity Wind Speed Rain
08-May-2021 (Sat)
17:00:00 broken clouds 37.210 37.210 37.210 18 3.05 m/h 0 %
20:00:00 scattered clouds 35.560 32.250 35.560 21 3.18 m/h 0 %
23:00:00 light rain 31.380 28.470 31.380 29 3.03 m/h 29 %
09-May-2021 (Sun)
02:00:00 clear sky 27.630 27.630 27.630 36 1.9 m/h 0 %
05:00:00 scattered clouds 26.360 26.360 26.360 39 2.01 m/h 0 %
08:00:00 broken clouds 31.730 31.730 31.730 28 3.55 m/h 0 %
11:00:00 broken clouds 38.150 38.150 38.150 18 3.75 m/h 0 %
14:00:00 broken clouds 41.080 41.080 41.080 12 2.57 m/h 0 %
17:00:00 broken clouds 36.180 36.180 36.180 18 6.04 m/h 0 %
20:00:00 broken clouds 29.090 29.090 29.090 38 8.34 m/h 0 %
23:00:00 broken clouds 26.210 26.210 26.210 46 3.55 m/h 0 %
10-May-2021 (Mon)
02:00:00 scattered clouds 25.560 25.560 25.560 47 2.56 m/h 0 %
05:00:00 light rain 24.750 24.750 24.750 52 2.42 m/h 17 %
08:00:00 overcast clouds 30.600 30.600 30.600 33 4.17 m/h 0 %
11:00:00 overcast clouds 37.040 37.040 37.040 19 4.07 m/h 0 %
14:00:00 overcast clouds 40.280 40.280 40.280 14 2.92 m/h 0 %
17:00:00 overcast clouds 40.340 40.340 40.340 13 1.87 m/h 0 %
20:00:00 clear sky 34.240 34.240 34.240 19 3.68 m/h 0 %
23:00:00 clear sky 31.240 31.240 31.240 23 3.43 m/h 0 %
11-May-2021 (Tue)
02:00:00 clear sky 28.840 28.840 28.840 26 3.02 m/h 0 %
05:00:00 clear sky 27.160 27.160 27.160 31 2.03 m/h 0 %
08:00:00 clear sky 33.290 33.290 33.290 23 2.9 m/h 0 %
11:00:00 clear sky 39.400 39.400 39.400 14 2.84 m/h 0 %
14:00:00 clear sky 42.630 42.630 42.630 10 3.83 m/h 0 %
17:00:00 clear sky 42.300 42.300 42.300 10 1.27 m/h 0 %
20:00:00 scattered clouds 32.480 32.480 32.480 26 6.35 m/h 0 %
23:00:00 light rain 30.110 30.110 30.110 31 5.94 m/h 18 %
12-May-2021 (Wed)
02:00:00 light rain 27.620 27.620 27.620 39 3.23 m/h 62 %
05:00:00 overcast clouds 28.300 28.300 28.300 36 4.03 m/h 0 %
08:00:00 overcast clouds 30.280 30.280 30.280 33 2.73 m/h 0 %
11:00:00 overcast clouds 35.310 35.310 35.310 24 3.89 m/h 0 %
14:00:00 broken clouds 37.880 37.880 37.880 20 6.34 m/h 0 %
17:00:00 light rain 28.780 28.780 28.780 44 9.54 m/h 201 %
20:00:00 light rain 24.510 24.510 24.510 57 2.29 m/h 81 %
23:00:00 light rain 24.790 24.790 24.790 58 3.35 m/h 22 %
13-May-2021 (Thu)
02:00:00 overcast clouds 24.430 24.430 24.430 58 1.89 m/h 0 %
05:00:00 light rain 23.250 23.250 23.250 62 2.19 m/h 21 %
08:00:00 broken clouds 27.620 27.620 27.620 44 3.67 m/h 0 %
11:00:00 scattered clouds 32.780 32.780 32.780 30 3.96 m/h 0 %
14:00:00 light rain 29.330 29.330 29.330 36 4.58 m/h 154 %

Famous Cities (60)